createdAt,value
2019-01-11T00:04:39.689Z,101726.50
2019-01-11T00:07:07.963Z,101725.64
2019-01-11T00:09:36.249Z,101722.20
2019-01-11T00:12:37.903Z,101720.45
2019-01-11T00:15:39.484Z,101723.89
2019-01-11T00:18:07.817Z,101716.59
2019-01-11T00:20:36.101Z,101713.58
2019-01-11T00:23:04.563Z,101709.72
2019-01-11T00:25:32.868Z,101709.29
2019-01-11T00:28:01.153Z,101707.56
2019-01-11T00:30:29.439Z,101709.28
2019-01-11T00:32:57.717Z,101708.84
2019-01-11T00:35:25.989Z,101704.55
2019-01-11T00:37:54.255Z,101702.84
2019-01-11T00:40:22.555Z,101704.13
2019-01-11T00:42:50.862Z,101700.27
2019-01-11T00:45:19.216Z,101703.27
2019-01-11T00:47:47.476Z,101706.28
2019-01-11T00:50:16.750Z,101705.42
2019-01-11T00:52:45.033Z,101694.20
2019-01-11T00:55:13.418Z,101690.80
2019-01-11T00:57:42.474Z,101686.51
2019-01-11T01:00:50.807Z,101680.45
2019-01-11T01:03:19.115Z,101680.45
2019-01-11T01:05:47.465Z,101667.98
2019-01-11T01:08:15.746Z,101670.13
2019-01-11T01:11:24.074Z,101650.84
2019-01-11T01:13:52.356Z,101649.13
2019-01-11T01:16:20.648Z,101656.81
2019-01-11T01:18:48.942Z,101651.23
2019-01-11T01:21:17.328Z,101643.50
2019-01-11T01:23:45.639Z,101650.35
2019-01-11T01:26:13.967Z,101638.77
2019-01-11T01:28:42.282Z,101637.04
2019-01-11T01:31:10.654Z,101643.91
2019-01-11T01:33:38.963Z,101634.89
2019-01-11T01:36:07.262Z,101629.74
2019-01-11T01:38:35.549Z,101637.89
2019-01-11T01:41:04.192Z,101624.57
2019-01-11T01:43:32.463Z,101618.11
2019-01-11T01:46:00.795Z,101628.36
2019-01-11T01:48:29.085Z,101624.05
2019-01-11T01:50:57.370Z,101618.05
2019-01-11T01:53:25.636Z,101617.19
2019-01-11T01:55:53.935Z,101621.94
2019-01-11T02:01:30.277Z,101615.89
2019-01-11T02:03:58.547Z,101618.48
2019-01-11T02:06:26.813Z,101605.58
2019-01-11T02:08:55.082Z,101602.14
2019-01-11T02:11:23.355Z,101603.41
2019-01-11T02:13:51.706Z,101600.81
2019-01-11T02:16:19.985Z,101602.90
2019-01-11T02:18:48.284Z,101595.23
2019-01-11T02:21:16.554Z,101582.67
2019-01-11T02:23:44.826Z,101587.81
2019-01-11T02:26:13.104Z,101599.87
2019-01-11T02:28:41.383Z,101591.70
2019-01-11T02:31:09.699Z,101599.03
2019-01-11T02:33:37.971Z,101586.98
2019-01-11T02:36:06.260Z,101590.80
2019-01-11T02:38:34.536Z,101588.22
2019-01-11T02:41:02.823Z,101583.41
2019-01-11T02:43:31.112Z,101582.14
2019-01-11T02:45:59.390Z,101579.09
2019-01-11T02:48:27.665Z,101568.81
2019-01-11T02:50:56.002Z,101570.09
2019-01-11T02:53:24.233Z,101568.78
2019-01-11T02:55:52.528Z,101570.07
2019-01-11T02:58:20.803Z,101575.66
2019-01-11T03:00:49.089Z,101575.20
2019-01-11T03:03:18.253Z,101572.63
2019-01-11T03:05:46.537Z,101568.34
2019-01-11T03:08:14.841Z,101562.22
2019-01-11T03:10:43.094Z,101553.66
2019-01-11T03:13:11.365Z,101551.04
2019-01-11T03:15:39.679Z,101553.66
2019-01-11T03:18:07.959Z,101554.03
2019-01-11T03:20:36.251Z,101547.16
2019-01-11T03:23:04.526Z,101548.42
2019-01-11T03:25:32.802Z,101546.69
2019-01-11T03:28:01.084Z,101546.26
2019-01-11T03:30:29.365Z,101537.20
2019-01-11T03:32:57.638Z,101538.48
2019-01-11T03:35:25.920Z,101525.98
2019-01-11T03:37:54.203Z,101523.31
2019-01-11T03:41:02.516Z,101521.15
2019-01-11T03:43:30.803Z,101520.38
2019-01-11T03:45:59.072Z,101514.23
2019-01-11T03:48:27.388Z,101506.96
2019-01-11T03:50:55.682Z,101501.75
2019-01-11T03:53:23.951Z,101498.69
2019-01-11T03:55:52.246Z,101495.29
2019-01-11T03:58:32.434Z,101489.24
2019-01-11T04:00:50.560Z,101489.67
2019-01-11T04:03:18.832Z,101484.48
2019-01-11T04:05:47.154Z,101481.48
2019-01-11T04:08:15.448Z,101476.29
2019-01-11T04:13:32.700Z,101474.98
2019-01-11T04:16:01.001Z,101473.64
2019-01-11T04:18:48.435Z,101468.45
2019-01-11T04:21:16.721Z,101468.39
2019-01-11T04:23:45.012Z,101465.84
2019-01-11T04:26:13.301Z,101464.06
2019-01-11T04:28:41.585Z,101458.91
2019-01-11T04:31:09.864Z,101462.38
2019-01-11T04:33:38.121Z,101459.72
2019-01-11T04:36:06.561Z,101456.63
2019-01-11T04:38:34.863Z,101452.38
2019-01-11T04:41:03.146Z,101451.08
2019-01-11T04:43:31.423Z,101451.84
2019-01-11T04:48:47.016Z,101426.01
2019-01-11T04:51:15.278Z,101435.47
2019-01-11T04:53:43.923Z,101435.02
2019-01-11T04:56:12.226Z,101424.16
2019-01-11T04:59:20.522Z,101432.37
2019-01-11T05:01:49.466Z,101428.47
2019-01-11T05:04:17.760Z,101425.87
2019-01-11T05:06:46.024Z,101428.83
2019-01-11T05:09:14.314Z,101425.36
2019-01-11T05:11:42.597Z,101431.73
2019-01-11T05:14:10.861Z,101426.13
2019-01-11T05:16:39.625Z,101426.95
2019-01-11T05:19:09.146Z,101423.45
2019-01-11T05:21:37.421Z,101420.75
2019-01-11T05:24:24.790Z,101419.37
2019-01-11T05:26:53.239Z,101419.80
2019-01-11T05:29:21.509Z,101422.33
2019-01-11T05:31:49.818Z,101421.49
2019-01-11T05:34:18.106Z,101417.16
2019-01-11T05:36:46.389Z,101417.06
2019-01-11T05:39:14.649Z,101416.98
2019-01-11T05:41:42.932Z,101415.63
2019-01-11T05:44:11.213Z,101412.12
2019-01-11T05:46:39.477Z,101405.98
2019-01-11T05:49:07.759Z,101405.19
2019-01-11T05:57:04.021Z,101389.41
2019-01-11T05:59:32.280Z,101383.36
2019-01-11T06:02:00.564Z,101380.23
2019-01-11T06:04:47.943Z,101379.41
2019-01-11T06:07:35.328Z,101364.70
2019-01-11T06:13:05.257Z,101354.74
2019-01-11T06:15:33.523Z,101349.91
2019-01-11T06:18:01.793Z,101355.50
2019-01-11T06:20:30.599Z,101346.44
2019-01-11T06:23:00.067Z,101350.63
2019-01-11T06:25:28.345Z,101346.64
2019-01-11T06:27:56.623Z,101342.31
2019-01-11T06:30:24.912Z,101339.73
2019-01-11T06:32:53.187Z,101345.69
2019-01-11T06:35:21.453Z,101345.25
2019-01-11T06:37:49.716Z,101344.78
2019-01-11T06:40:17.983Z,101340.42
2019-01-11T06:42:46.267Z,101338.52
2019-01-11T06:45:14.564Z,101335.94
2019-01-11T06:47:42.823Z,101338.08
2019-01-11T06:50:36.373Z,101332.84
2019-01-11T06:53:00.442Z,101331.47
2019-01-11T06:55:28.730Z,101332.30
2019-01-11T06:57:57.007Z,101330.15
2019-01-11T07:00:25.319Z,101317.55
2019-01-11T07:02:53.604Z,101324.41
2019-01-11T07:05:21.919Z,101314.34
2019-01-11T07:07:50.209Z,101320.38
2019-01-11T07:10:37.819Z,101315.97
2019-01-11T07:13:06.129Z,101320.70
2019-01-11T07:15:34.360Z,101320.20
2019-01-11T07:18:02.717Z,101317.02
2019-01-11T07:20:30.974Z,101318.25
2019-01-11T07:22:59.242Z,101319.48
2019-01-11T07:25:27.515Z,101312.13
2019-01-11T07:31:03.862Z,101311.18
2019-01-11T07:33:32.136Z,101312.45
2019-01-11T07:36:19.523Z,101315.03
2019-01-11T07:38:47.795Z,101302.84
2019-01-11T07:41:16.074Z,101313.55
2019-01-11T07:43:44.739Z,101303.50
2019-01-11T07:46:13.097Z,101311.66
2019-01-11T07:48:41.362Z,101300.37
2019-01-11T07:51:09.627Z,101306.34
2019-01-11T07:53:38.921Z,101301.43
2019-01-11T07:56:07.191Z,101303.99
2019-01-11T07:58:35.472Z,101302.16
2019-01-11T08:01:03.880Z,101297.86
2019-01-11T08:03:32.164Z,101287.86
2019-01-11T08:06:00.437Z,101287.38
2019-01-11T08:08:28.722Z,101292.43
2019-01-11T08:10:57.003Z,101284.58
2019-01-11T08:13:25.269Z,101282.70
2019-01-11T08:15:53.544Z,101283.93
2019-01-11T08:18:21.880Z,101280.38
2019-01-11T08:23:29.116Z,101268.22
2019-01-11T08:25:57.386Z,101269.75
2019-01-11T08:31:04.602Z,101270.53
2019-01-11T08:36:11.822Z,101272.05
2019-01-11T08:38:40.079Z,101272.91
2019-01-11T08:41:08.413Z,101267.94
2019-01-11T08:43:36.677Z,101263.13
2019-01-11T08:46:05.010Z,101266.08
2019-01-11T08:48:33.281Z,101259.59
2019-01-11T08:51:13.895Z,101264.22
2019-01-11T08:53:42.163Z,101259.84
2019-01-11T08:56:10.496Z,101261.48
2019-01-11T09:01:27.716Z,101252.20
2019-01-11T09:03:55.974Z,101249.11
2019-01-11T09:06:24.245Z,101255.48
2019-01-11T09:08:52.535Z,101252.41
2019-01-11T09:11:20.821Z,101254.36
2019-01-11T09:13:49.059Z,101248.76
2019-01-11T09:16:20.819Z,101251.19
2019-01-11T09:18:47.545Z,101251.11
2019-01-11T09:21:15.808Z,101244.09
2019-01-11T09:23:44.619Z,101238.89
2019-01-11T09:28:51.909Z,101246.53
2019-01-11T09:31:20.165Z,101246.08
2019-01-11T09:33:48.516Z,101246.04
2019-01-11T09:36:16.803Z,101247.34
2019-01-11T09:38:45.032Z,101236.86
2019-01-11T09:41:13.295Z,101249.41
2019-01-11T09:43:41.573Z,101245.51
2019-01-11T09:46:09.831Z,101245.95
2019-01-11T09:48:38.090Z,101248.52
2019-01-11T09:51:06.361Z,101238.04
2019-01-11T09:53:34.614Z,101232.71
2019-01-11T09:56:02.878Z,101233.29
2019-01-11T09:58:31.138Z,101234.95
2019-01-11T10:00:59.424Z,101237.46
2019-01-11T10:03:27.695Z,101235.31
2019-01-11T10:05:55.960Z,101236.16
2019-01-11T10:08:24.227Z,101228.25
2019-01-11T10:10:52.502Z,101224.27
2019-01-11T10:13:20.764Z,101224.76
2019-01-11T10:15:49.043Z,101222.97
2019-01-11T10:18:17.340Z,101215.80
2019-01-11T10:20:45.663Z,101211.86
2019-01-11T10:23:13.916Z,101217.06
2019-01-11T10:25:42.177Z,101211.41
2019-01-11T10:28:10.443Z,101207.92
2019-01-11T10:30:38.695Z,101204.34
2019-01-11T10:33:06.953Z,101204.42
2019-01-11T10:35:35.212Z,101208.61
2019-01-11T10:38:03.465Z,101205.16
2019-01-11T10:40:31.720Z,101207.38
2019-01-11T10:45:48.938Z,101202.28
2019-01-11T10:48:17.195Z,101186.78
2019-01-11T10:50:45.456Z,101187.94
2019-01-11T10:53:13.778Z,101176.59
2019-01-11T10:55:42.051Z,101184.44
2019-01-11T10:58:10.310Z,101184.49
2019-01-11T11:00:38.549Z,101190.72
2019-01-11T11:03:06.810Z,101186.37
2019-01-11T11:05:54.449Z,101187.14
2019-01-11T11:08:22.742Z,101185.84
2019-01-11T11:10:51.001Z,101186.86
2019-01-11T11:13:19.269Z,101179.06
2019-01-11T11:18:26.502Z,101174.44
2019-01-11T11:20:54.743Z,101161.72
2019-01-11T11:23:22.998Z,101162.80
2019-01-11T11:25:51.255Z,101164.14
2019-01-11T11:28:19.534Z,101154.16
2019-01-11T11:30:50.979Z,101146.09
2019-01-11T11:33:17.762Z,101149.31
2019-01-11T11:35:46.023Z,101143.66
2019-01-11T11:38:14.276Z,101137.47
2019-01-11T11:40:42.547Z,101128.77
2019-01-11T11:43:10.800Z,101128.47
2019-01-11T11:45:39.059Z,101125.77
2019-01-11T11:48:07.366Z,101116.45
2019-01-11T11:50:35.607Z,101111.92
2019-01-11T11:53:03.879Z,101110.23
2019-01-11T11:55:32.129Z,101104.72
2019-01-11T11:58:00.369Z,101105.02
2019-01-11T12:01:08.669Z,101096.42
2019-01-11T12:03:36.921Z,101093.38
2019-01-11T12:06:05.264Z,101091.42
2019-01-11T12:08:33.517Z,101096.22
2019-01-11T12:11:01.795Z,101094.58
2019-01-11T12:13:30.068Z,101079.33
2019-01-11T12:15:58.321Z,101088.07
2019-01-11T12:18:26.581Z,101084.67
2019-01-11T12:20:54.841Z,101075.53
2019-01-11T12:23:23.095Z,101070.98
2019-01-11T12:25:51.353Z,101072.33
2019-01-11T12:28:19.621Z,101065.88
2019-01-11T12:30:47.892Z,101054.44
2019-01-11T12:33:16.165Z,101055.05
2019-01-11T12:35:44.423Z,101061.55
2019-01-11T12:38:13.739Z,101046.75
2019-01-11T12:40:42.663Z,101045.55
2019-01-11T12:43:10.917Z,101047.36
2019-01-11T12:45:39.167Z,101029.66
2019-01-11T12:48:07.420Z,101033.56
2019-01-11T12:50:35.701Z,101033.45
2019-01-11T12:53:04.020Z,101023.85
2019-01-11T12:55:32.270Z,101026.06
2019-01-11T12:58:00.530Z,101020.01
2019-01-11T13:00:28.789Z,101021.86
2019-01-11T13:02:57.042Z,101022.21
2019-01-11T13:05:25.323Z,101014.41
2019-01-11T13:07:53.579Z,101007.45
2019-01-11T13:10:21.920Z,100998.91
2019-01-11T13:12:50.176Z,100996.45
2019-01-11T13:15:19.666Z,100990.50
2019-01-11T13:17:47.922Z,100996.40
2019-01-11T13:20:49.555Z,101001.96
2019-01-11T13:23:17.824Z,101000.41
2019-01-11T13:25:46.088Z,100993.95
2019-01-11T13:28:14.337Z,101006.56
2019-01-11T13:30:42.592Z,100994.41
2019-01-11T13:33:10.861Z,100992.66
2019-01-11T13:35:39.115Z,100984.75
2019-01-11T13:38:07.372Z,100986.05
2019-01-11T13:40:35.645Z,100988.80
2019-01-11T13:43:03.878Z,100995.70
2019-01-11T13:45:32.224Z,100993.11
2019-01-11T13:48:00.506Z,100994.86
2019-01-11T13:50:48.111Z,101003.34
2019-01-11T13:53:16.365Z,101006.45
2019-01-11T13:55:44.621Z,101005.81
2019-01-11T13:58:12.862Z,101000.34
2019-01-11T14:00:41.205Z,101001.15
2019-01-11T14:03:09.413Z,100999.31
2019-01-11T14:05:37.681Z,101012.36
2019-01-11T14:08:06.000Z,101012.36
2019-01-11T14:10:34.262Z,101012.52
2019-01-11T14:13:02.522Z,100999.70
2019-01-11T14:15:30.786Z,101006.30
2019-01-11T14:17:59.032Z,101008.11
2019-01-11T14:20:27.295Z,101008.56
2019-01-11T14:22:55.561Z,101008.26
2019-01-11T14:25:23.832Z,101004.66
2019-01-11T14:27:52.095Z,101011.50
2019-01-11T14:31:00.399Z,101020.09
2019-01-11T14:33:28.668Z,101013.66
2019-01-11T14:35:56.936Z,101019.81
2019-01-11T14:38:25.218Z,101019.77
2019-01-11T14:40:53.479Z,101033.55
2019-01-11T14:43:21.732Z,101032.34
2019-01-11T14:45:50.003Z,101036.20
2019-01-11T14:48:18.263Z,101035.55
2019-01-11T14:50:46.517Z,101044.64
2019-01-11T14:53:14.772Z,101051.91
2019-01-11T14:55:43.055Z,101046.30
2019-01-11T14:58:11.307Z,101052.31
2019-01-11T15:00:39.583Z,101052.86
2019-01-11T15:03:07.849Z,101062.91
2019-01-11T15:05:36.115Z,101054.52
2019-01-11T15:08:04.549Z,101050.51
2019-01-11T15:10:32.817Z,101052.52
2019-01-11T15:13:01.071Z,101058.34
2019-01-11T15:15:29.346Z,101051.86
2019-01-11T15:17:57.598Z,101066.09
2019-01-11T15:20:25.864Z,101064.94
2019-01-11T15:22:54.128Z,101065.16
2019-01-11T15:25:22.398Z,101067.27
2019-01-11T15:27:50.715Z,101074.74
2019-01-11T15:30:59.000Z,101075.91
2019-01-11T15:33:27.276Z,101074.53
2019-01-11T15:35:55.535Z,101073.95
2019-01-11T15:41:12.769Z,101066.20
2019-01-11T15:43:41.949Z,101061.19
2019-01-11T15:46:15.038Z,101069.52
2019-01-11T15:48:59.566Z,101065.44
2019-01-11T15:51:27.898Z,101058.19
2019-01-11T15:53:56.203Z,101064.23
2019-01-11T15:59:26.108Z,101063.48
2019-01-11T16:01:54.605Z,101062.18
2019-01-11T16:04:22.864Z,101056.00
2019-01-11T16:06:51.199Z,101061.59
2019-01-11T16:09:52.745Z,101060.16
2019-01-11T16:12:21.013Z,101051.42
2019-01-11T16:15:29.330Z,101058.37
2019-01-11T16:18:37.600Z,101054.80
2019-01-11T16:21:05.866Z,101059.48
2019-01-11T16:23:34.198Z,101056.22
2019-01-11T16:26:15.544Z,101051.47
2019-01-11T16:28:44.120Z,101058.05
2019-01-11T16:31:12.368Z,101056.94
2019-01-11T16:33:40.677Z,101065.13
2019-01-11T16:36:08.919Z,101056.84
2019-01-11T16:38:56.566Z,101064.19
2019-01-11T16:41:24.807Z,101059.40
2019-01-11T16:43:53.060Z,101062.34
2019-01-11T16:46:21.320Z,101070.23
2019-01-11T16:48:49.565Z,101071.09
2019-01-11T16:51:17.832Z,101067.19
2019-01-11T16:53:46.094Z,101061.69
2019-01-11T16:56:14.349Z,101062.13
2019-01-11T16:58:42.601Z,101065.94
2019-01-11T17:01:10.874Z,101075.69
2019-01-11T17:03:39.158Z,101068.58
2019-01-11T17:06:07.398Z,101075.25
2019-01-11T17:08:35.659Z,101065.70
2019-01-11T17:11:03.902Z,101069.20
2019-01-11T17:13:32.152Z,101072.97
2019-01-11T17:16:00.412Z,101076.55
2019-01-11T17:18:28.678Z,101070.41
2019-01-11T17:20:56.939Z,101070.23
2019-01-11T17:23:25.188Z,101067.82
2019-01-11T17:25:53.458Z,101076.19
2019-01-11T17:28:21.725Z,101075.74
2019-01-11T17:30:49.988Z,101078.61
2019-01-11T17:33:18.251Z,101084.73
2019-01-11T17:35:46.532Z,101082.19
2019-01-11T17:38:14.789Z,101073.50
2019-01-11T17:40:43.046Z,101073.95
2019-01-11T17:43:11.304Z,101073.45
2019-01-11T17:45:39.570Z,101078.73
2019-01-11T17:48:07.827Z,101073.05
2019-01-11T17:50:36.100Z,101080.66
2019-01-11T17:53:04.498Z,101077.04
2019-01-11T17:55:32.751Z,101073.91
2019-01-11T17:58:01.007Z,101075.20
2019-01-11T18:00:29.271Z,101071.56
2019-01-11T18:02:57.523Z,101076.94
2019-01-11T18:05:25.781Z,101074.20
2019-01-11T18:07:54.617Z,101075.77
2019-01-11T18:10:22.890Z,101077.06
2019-01-11T18:12:51.129Z,101082.34
2019-01-11T18:15:59.432Z,101082.69
2019-01-11T18:18:27.709Z,101090.38
2019-01-11T18:20:55.975Z,101093.51
2019-01-11T18:23:24.236Z,101089.34
2019-01-11T18:25:52.501Z,101091.01
2019-01-11T18:28:20.775Z,101102.23
2019-01-11T18:30:49.027Z,101100.66
2019-01-11T18:33:17.301Z,101095.19
2019-01-11T18:35:45.565Z,101102.28
2019-01-11T18:38:13.835Z,101099.20
2019-01-11T18:40:42.136Z,101096.24
2019-01-11T18:43:10.388Z,101104.02
2019-01-11T18:45:38.641Z,101118.94
2019-01-11T18:48:06.901Z,101122.38
2019-01-11T18:50:35.169Z,101123.39
2019-01-11T18:53:03.430Z,101127.23
2019-01-11T18:55:31.696Z,101128.42
2019-01-11T18:57:59.972Z,101129.72
2019-01-11T19:00:28.241Z,101132.80
2019-01-11T19:02:56.492Z,101136.61
2019-01-11T19:05:24.771Z,101134.25
2019-01-11T19:07:53.035Z,101132.97
2019-01-11T19:10:55.326Z,101140.63
2019-01-11T19:13:23.590Z,101138.94
2019-01-11T19:15:51.850Z,101140.74
2019-01-11T19:18:20.119Z,101141.67
2019-01-11T19:20:48.393Z,101140.08
2019-01-11T19:23:20.428Z,101147.41
2019-01-11T19:25:46.659Z,101145.37
2019-01-11T19:28:14.940Z,101148.94
2019-01-11T19:30:43.202Z,101153.89
2019-01-11T19:33:11.467Z,101158.67
2019-01-11T19:35:39.770Z,101162.52
2019-01-11T19:38:08.071Z,101160.37
2019-01-11T19:40:36.337Z,101161.88
2019-01-11T19:43:04.607Z,101163.59
2019-01-11T19:45:32.850Z,101160.31
2019-01-11T19:48:01.135Z,101157.31
2019-01-11T19:50:29.386Z,101159.60
2019-01-11T19:52:57.664Z,101159.33
2019-01-11T19:55:25.944Z,101157.35
2019-01-11T19:57:54.272Z,101158.87
2019-01-11T20:00:56.458Z,101160.80
2019-01-11T20:03:24.740Z,101163.08
2019-01-11T20:05:52.996Z,101164.96
2019-01-11T20:08:21.279Z,101164.78
2019-01-11T20:10:49.542Z,101164.45
2019-01-11T20:13:17.857Z,101171.67
2019-01-11T20:15:46.122Z,101172.45
2019-01-11T20:18:14.370Z,101170.85
2019-01-11T20:20:42.723Z,101174.16
2019-01-11T20:23:10.985Z,101180.13
2019-01-11T20:25:39.233Z,101183.16
2019-01-11T20:28:07.515Z,101180.88
2019-01-11T20:30:35.775Z,101183.36
2019-01-11T20:33:04.123Z,101186.80
2019-01-11T20:35:32.387Z,101183.42
2019-01-11T20:38:00.709Z,101189.21
2019-01-11T20:40:28.992Z,101188.57
2019-01-11T20:42:57.275Z,101188.64
2019-01-11T20:45:25.551Z,101188.20
2019-01-11T20:47:53.805Z,101195.63
2019-01-11T20:50:55.816Z,101202.95
2019-01-11T20:53:24.083Z,101206.39
2019-01-11T20:55:52.351Z,101200.77
2019-01-11T20:58:20.612Z,101195.94
2019-01-11T21:00:48.881Z,101195.11
2019-01-11T21:03:17.209Z,101197.58
2019-01-11T21:05:45.548Z,101201.73
2019-01-11T21:08:13.938Z,101208.28
2019-01-11T21:10:42.225Z,101213.49
2019-01-11T21:13:10.506Z,101210.08
2019-01-11T21:15:38.760Z,101208.92
2019-01-11T21:18:07.034Z,101203.20
2019-01-11T21:20:35.294Z,101206.77
2019-01-11T21:23:03.631Z,101211.32
2019-01-11T21:25:31.886Z,101210.88
2019-01-11T21:28:00.221Z,101212.45
2019-01-11T21:31:08.518Z,101209.74
2019-01-11T21:33:36.769Z,101213.59
2019-01-11T21:36:05.096Z,101213.59
2019-01-11T21:38:33.346Z,101215.83
2019-01-11T21:41:01.618Z,101202.09
2019-01-11T21:43:29.873Z,101205.45
2019-01-11T21:46:03.388Z,101206.33
2019-01-11T21:48:28.116Z,101205.16
2019-01-11T21:50:56.380Z,101202.92
2019-01-11T21:53:24.647Z,101206.45
2019-01-11T21:55:52.936Z,101203.33
2019-01-11T21:58:21.190Z,101204.69
2019-01-11T22:00:49.449Z,101205.60
2019-01-11T22:03:17.736Z,101197.77
2019-01-11T22:05:45.994Z,101203.77
2019-01-11T22:08:14.428Z,101199.63
2019-01-11T22:10:42.746Z,101203.20
2019-01-11T22:13:10.999Z,101198.50
2019-01-11T22:15:39.264Z,101203.27
2019-01-11T22:18:07.521Z,101197.11
2019-01-11T22:20:35.785Z,101189.66
2019-01-11T22:23:04.056Z,101201.44
2019-01-11T22:25:32.327Z,101204.27
2019-01-11T22:28:00.636Z,101206.90
2019-01-11T22:30:30.506Z,101210.75
2019-01-11T22:32:58.891Z,101215.52
2019-01-11T22:35:27.154Z,101214.92
2019-01-11T22:37:55.421Z,101211.79
2019-01-11T22:41:03.713Z,101208.95
2019-01-11T22:43:31.974Z,101211.03
2019-01-11T22:46:00.227Z,101210.97
2019-01-11T22:48:29.372Z,101204.52
2019-01-11T22:50:57.635Z,101207.05
2019-01-11T22:53:25.892Z,101204.42
2019-01-11T22:55:54.154Z,101205.28
2019-01-11T22:58:22.435Z,101206.54
2019-01-11T23:01:24.100Z,101207.77
2019-01-11T23:03:52.361Z,101206.00
2019-01-11T23:07:00.638Z,101202.90
2019-01-11T23:10:08.944Z,101204.09
2019-01-11T23:13:11.130Z,101202.52
2019-01-11T23:15:39.389Z,101205.83
2019-01-11T23:18:07.662Z,101206.24
2019-01-11T23:20:35.907Z,101204.64
2019-01-11T23:23:04.249Z,101199.05
2019-01-11T23:25:32.528Z,101196.73
2019-01-11T23:28:00.778Z,101198.95
2019-01-11T23:30:29.039Z,101202.14
2019-01-11T23:32:57.287Z,101202.59
2019-01-11T23:35:25.556Z,101207.30
2019-01-11T23:37:53.811Z,101207.23
2019-01-11T23:40:22.098Z,101205.83
2019-01-11T23:42:50.361Z,101207.64
2019-01-11T23:45:18.637Z,101205.52
2019-01-11T23:47:46.889Z,101205.52
2019-01-11T23:50:48.570Z,101212.75
2019-01-11T23:53:16.849Z,101210.20
2019-01-11T23:55:45.114Z,101213.91
2019-01-11T23:58:13.377Z,101216.91
